createdAt,value
2024-05-09T05:30:41.867Z,13.22
2024-05-09T05:33:13.684Z,13.31
2024-05-09T05:35:41.658Z,13.28
2024-05-09T05:38:10.981Z,13.16
2024-05-09T05:40:40.021Z,13.27
2024-05-09T05:43:18.037Z,13.24
2024-05-09T05:45:51.109Z,13.27
2024-05-09T05:48:24.725Z,13.34
2024-05-09T05:50:51.968Z,13.15
2024-05-09T05:53:21.487Z,13.26
2024-05-09T05:55:53.042Z,13.45
2024-05-09T05:58:29.076Z,13.43
2024-05-09T06:00:55.903Z,13.57
2024-05-09T06:03:22.815Z,13.60
2024-05-09T06:05:53.369Z,13.62
2024-05-09T06:08:24.158Z,13.64
2024-05-09T06:10:52.435Z,13.74
2024-05-09T06:13:20.056Z,13.88
2024-05-09T06:15:46.879Z,13.94
2024-05-09T06:18:23.006Z,13.79
2024-05-09T06:20:52.794Z,13.73
2024-05-09T06:23:23.873Z,13.83
2024-05-09T06:25:53.558Z,14.01
2024-05-09T06:28:24.363Z,13.93
2024-05-09T06:30:51.411Z,13.97
2024-05-09T06:36:25.047Z,14.05
2024-05-09T06:38:58.079Z,14.12
2024-05-09T06:41:31.197Z,14.13
2024-05-09T06:44:00.807Z,14.18
2024-05-09T06:46:27.788Z,14.29
2024-05-09T06:48:54.680Z,14.20
2024-05-09T06:51:28.038Z,14.26
2024-05-09T06:53:57.273Z,14.34
2024-05-09T06:56:24.076Z,14.24
2024-05-09T06:58:54.297Z,14.43
2024-05-09T07:01:21.115Z,14.54
2024-05-09T07:03:53.670Z,14.66
2024-05-09T07:06:23.646Z,14.81
2024-05-09T07:08:52.953Z,14.85
2024-05-09T07:11:20.158Z,14.77
2024-05-09T07:13:47.516Z,14.79
2024-05-09T07:16:17.538Z,14.96
2024-05-09T07:18:44.672Z,15.13
2024-05-09T07:21:12.902Z,15.20
2024-05-09T07:23:46.101Z,15.23
2024-05-09T07:26:14.321Z,15.20
2024-05-09T07:28:41.179Z,15.30
2024-05-09T07:31:13.988Z,15.45
2024-05-09T07:33:40.866Z,15.15
2024-05-09T07:36:15.936Z,15.13
2024-05-09T07:38:42.887Z,15.13
2024-05-09T07:41:09.928Z,15.28
2024-05-09T07:43:42.616Z,15.19
2024-05-09T07:47:13.867Z,15.24
2024-05-09T07:53:21.996Z,15.37
2024-05-09T07:54:51.912Z,15.19
2024-05-09T07:57:47.899Z,15.05
2024-05-09T08:00:23.592Z,14.99
2024-05-09T08:02:55.512Z,15.10
2024-05-09T08:05:27.180Z,15.17
2024-05-09T08:07:54.358Z,15.23
2024-05-09T08:10:28.964Z,15.25
2024-05-09T08:12:59.658Z,15.25
2024-05-09T08:15:37.347Z,15.20
2024-05-09T08:18:08.699Z,15.31
2024-05-09T08:20:42.517Z,15.23
2024-05-09T08:23:12.614Z,15.24
2024-05-09T08:25:40.359Z,15.22
2024-05-09T08:28:13.376Z,15.27
2024-05-09T08:30:47.801Z,15.32
2024-05-09T08:33:35.393Z,15.46
2024-05-09T08:36:03.601Z,15.57
2024-05-09T08:38:30.688Z,15.54
2024-05-09T08:40:57.461Z,15.80
2024-05-09T08:43:26.787Z,15.94
2024-05-09T08:45:53.947Z,16.00
2024-05-09T08:48:23.852Z,15.95
2024-05-09T08:51:02.822Z,15.97
2024-05-09T08:53:35.139Z,15.70
2024-05-09T08:56:04.845Z,15.85
2024-05-09T08:58:37.852Z,15.80
2024-05-09T09:01:05.227Z,15.78
2024-05-09T09:03:50.682Z,15.62
2024-05-09T09:06:21.621Z,15.71
2024-05-09T09:08:49.075Z,15.92
2024-05-09T09:11:16.038Z,16.00
2024-05-09T09:13:42.928Z,15.92
2024-05-09T09:16:10.061Z,16.05
2024-05-09T09:18:43.842Z,16.18
2024-05-09T09:21:13.866Z,16.27
2024-05-09T09:23:44.966Z,16.50
2024-05-09T09:26:16.292Z,16.49
2024-05-09T09:28:43.364Z,16.52
2024-05-09T09:31:10.252Z,16.64
2024-05-09T09:33:43.703Z,16.64
2024-05-09T09:36:13.403Z,16.96
2024-05-09T09:38:41.314Z,16.97
2024-05-09T09:41:12.406Z,16.95
2024-05-09T09:43:39.959Z,16.99
2024-05-09T09:46:11.584Z,16.92
2024-05-09T09:48:40.887Z,16.97
2024-05-09T09:51:08.527Z,16.86
2024-05-09T09:53:39.576Z,16.98
2024-05-09T09:56:10.315Z,17.21
2024-05-09T09:58:40.381Z,17.38
2024-05-09T10:01:07.280Z,17.57
2024-05-09T10:03:34.850Z,17.42
2024-05-09T10:06:07.309Z,17.76
2024-05-09T10:08:35.871Z,18.08
2024-05-09T10:11:05.983Z,17.83
2024-05-09T10:13:34.065Z,18.24
2024-05-09T10:16:15.451Z,18.38
2024-05-09T10:18:42.452Z,18.31
2024-05-09T10:21:22.405Z,18.83
2024-05-09T10:24:18.898Z,19.01
2024-05-09T10:26:53.721Z,18.91
2024-05-09T10:29:20.969Z,18.92
2024-05-09T10:31:49.654Z,18.86
2024-05-09T10:34:21.285Z,18.76
2024-05-09T10:36:55.785Z,18.74
2024-05-09T10:39:25.861Z,18.64
2024-05-09T10:41:54.074Z,19.07
2024-05-09T10:44:27.028Z,19.04
2024-05-09T10:46:55.238Z,19.14
2024-05-09T10:49:22.697Z,18.99
2024-05-09T10:51:49.649Z,19.21
2024-05-09T10:54:18.828Z,19.36
2024-05-09T10:56:56.522Z,19.42
2024-05-09T10:59:23.319Z,19.67
2024-05-09T11:01:51.235Z,19.18
2024-05-09T11:04:20.854Z,19.15
2024-05-09T11:06:48.134Z,19.17
2024-05-09T11:09:15.216Z,19.45
2024-05-09T11:11:45.913Z,19.48
2024-05-09T11:14:13.304Z,19.61
2024-05-09T11:16:43.222Z,19.32
2024-05-09T11:19:13.703Z,19.35
2024-05-09T11:21:41.242Z,19.20
2024-05-09T11:24:11.720Z,19.32
2024-05-09T11:26:42.668Z,19.47
2024-05-09T11:29:09.534Z,19.47
2024-05-09T11:31:49.062Z,19.85
2024-05-09T11:34:16.238Z,19.88
2024-05-09T11:38:00.722Z,19.52
2024-05-09T11:40:25.243Z,19.41
2024-05-09T11:43:03.535Z,19.73
2024-05-09T11:45:33.452Z,19.86
2024-05-09T11:48:00.917Z,19.59
2024-05-09T11:50:32.791Z,19.76
2024-05-09T11:53:07.750Z,19.57
2024-05-09T11:55:35.042Z,19.93
2024-05-09T11:58:03.495Z,19.57
2024-05-09T12:00:36.783Z,19.64
2024-05-09T12:03:06.746Z,19.79
2024-05-09T12:05:34.476Z,19.96
2024-05-09T12:08:02.602Z,19.88
2024-05-09T12:10:33.822Z,20.05
2024-05-09T12:13:05.374Z,19.85
2024-05-09T12:15:38.088Z,19.70
2024-05-09T12:18:14.480Z,19.90
2024-05-09T12:20:41.289Z,19.87
2024-05-09T12:23:11.683Z,19.55
2024-05-09T12:25:40.001Z,19.65
2024-05-09T12:28:07.847Z,19.83
2024-05-09T12:30:38.803Z,20.02
2024-05-09T12:33:08.870Z,19.94
2024-05-09T12:35:38.569Z,20.21
2024-05-09T12:38:05.458Z,20.32
2024-05-09T12:40:37.881Z,20.04
2024-05-09T12:43:10.305Z,19.98
2024-05-09T12:45:38.615Z,20.13
2024-05-09T12:48:14.276Z,20.31
2024-05-09T12:50:41.726Z,20.11
2024-05-09T12:53:08.913Z,19.75
2024-05-09T12:55:44.511Z,19.75
2024-05-09T12:58:21.133Z,20.07
2024-05-09T13:00:49.571Z,20.04
2024-05-09T13:03:16.733Z,19.82
2024-05-09T13:05:46.896Z,19.73
2024-05-09T13:08:14.106Z,19.75
2024-05-09T13:10:44.323Z,19.73
2024-05-09T13:13:11.593Z,19.70
2024-05-09T13:15:38.818Z,19.66
2024-05-09T13:18:10.023Z,19.60
2024-05-09T13:20:37.381Z,19.87
2024-05-09T13:23:06.236Z,19.84
2024-05-09T13:25:35.450Z,19.75
2024-05-09T13:28:03.941Z,19.86
2024-05-09T13:30:39.124Z,19.65
2024-05-09T13:33:13.487Z,19.61
2024-05-09T13:35:47.701Z,19.62
2024-05-09T13:38:25.274Z,19.92
2024-05-09T13:40:54.800Z,20.14
2024-05-09T13:43:21.856Z,20.27
2024-05-09T13:45:49.179Z,19.89
2024-05-09T13:48:16.509Z,19.43
2024-05-09T13:50:43.532Z,19.54
2024-05-09T13:53:10.400Z,19.72
2024-05-09T13:55:40.701Z,19.97
2024-05-09T13:58:08.747Z,20.05
2024-05-09T14:00:44.552Z,19.95
2024-05-09T14:03:16.772Z,20.27
2024-05-09T14:05:45.539Z,20.20
2024-05-09T14:08:12.826Z,20.24
2024-05-09T14:10:39.715Z,20.29
2024-05-09T14:13:06.643Z,20.18
2024-05-09T14:15:33.551Z,19.96
2024-05-09T14:18:00.481Z,19.90
2024-05-09T14:20:31.332Z,19.52
2024-05-09T14:23:00.871Z,19.73
2024-05-09T14:25:29.730Z,19.58
2024-05-09T14:27:58.294Z,19.50
2024-05-09T14:30:34.264Z,19.70
2024-05-09T14:33:05.283Z,19.86
2024-05-09T14:35:32.899Z,19.95
2024-05-09T14:37:59.835Z,19.96
2024-05-09T14:40:36.957Z,20.04
2024-05-09T14:43:08.874Z,20.17
2024-05-09T14:45:35.952Z,20.04
2024-05-09T14:48:03.963Z,19.58
2024-05-09T14:50:36.495Z,19.37
2024-05-09T14:53:09.749Z,19.26
2024-05-09T14:55:38.257Z,19.37
2024-05-09T14:58:09.465Z,19.60
2024-05-09T15:00:44.768Z,19.77
2024-05-09T15:03:15.388Z,19.87
2024-05-09T15:05:42.251Z,19.90
2024-05-09T15:08:09.138Z,19.79
2024-05-09T15:10:37.185Z,19.76
2024-05-09T15:13:06.067Z,19.71
2024-05-09T15:15:34.223Z,19.52
2024-05-09T15:18:01.384Z,19.38
2024-05-09T15:20:34.553Z,19.28
2024-05-09T15:23:04.771Z,19.41
2024-05-09T15:25:32.839Z,19.56
2024-05-09T15:27:59.799Z,19.57
2024-05-09T15:32:56.387Z,19.75
2024-05-09T15:35:23.271Z,19.77
2024-05-09T15:37:50.230Z,19.66
2024-05-09T15:40:26.209Z,19.62
2024-05-09T15:43:02.338Z,19.59
2024-05-09T15:45:29.701Z,19.59
2024-05-09T15:47:57.354Z,19.64
2024-05-09T15:50:35.371Z,19.65
2024-05-09T15:53:07.213Z,19.77
2024-05-09T15:55:34.957Z,19.73
2024-05-09T15:58:03.052Z,19.70
2024-05-09T16:00:38.640Z,19.83
2024-05-09T16:03:13.773Z,19.68
2024-05-09T16:05:44.019Z,19.77
2024-05-09T16:08:12.224Z,19.70
2024-05-09T16:10:43.542Z,19.79
2024-05-09T16:13:14.400Z,19.63
2024-05-09T16:15:41.415Z,19.75
2024-05-09T16:18:08.626Z,19.65
2024-05-09T16:20:40.077Z,19.71
2024-05-09T16:23:12.092Z,19.81
2024-05-09T16:25:42.201Z,19.63
2024-05-09T16:28:10.740Z,19.65
2024-05-09T16:30:40.928Z,19.47
2024-05-09T16:33:08.858Z,19.46
2024-05-09T16:35:36.605Z,19.46
2024-05-09T16:38:04.229Z,19.52
2024-05-09T16:40:37.942Z,19.51
2024-05-09T16:43:08.320Z,19.43
2024-05-09T16:45:35.793Z,19.38
2024-05-09T16:48:03.341Z,19.51
2024-05-09T16:50:33.492Z,19.38
2024-05-09T16:53:06.578Z,19.38
2024-05-09T16:55:34.662Z,19.30
2024-05-09T16:58:02.003Z,19.33
2024-05-09T17:00:39.958Z,19.27
2024-05-09T17:03:12.728Z,19.16
2024-05-09T17:05:41.006Z,19.15
2024-05-09T17:08:08.562Z,19.15
2024-05-09T17:10:35.785Z,19.14
2024-05-09T17:13:04.861Z,19.07
2024-05-09T17:15:33.539Z,19.09
2024-05-09T17:18:01.512Z,18.91
2024-05-09T17:20:33.472Z,18.91
2024-05-09T17:23:04.106Z,18.82
2024-05-09T17:25:34.281Z,18.84
2024-05-09T17:28:01.554Z,18.76
2024-05-09T17:30:34.500Z,18.64
2024-05-09T17:33:05.227Z,18.63
2024-05-09T17:35:32.266Z,18.46
2024-05-09T17:37:59.460Z,18.36
2024-05-09T17:40:32.620Z,18.35
2024-05-09T17:43:02.685Z,18.37
2024-05-09T17:45:29.753Z,18.28
2024-05-09T17:47:59.251Z,18.22
2024-05-09T17:50:31.828Z,18.14
2024-05-09T17:53:02.945Z,18.12
2024-05-09T17:55:32.415Z,18.10
2024-05-09T17:57:59.509Z,18.04
2024-05-09T18:02:56.507Z,17.96
2024-05-09T18:05:23.588Z,17.84
2024-05-09T18:07:50.511Z,17.84
2024-05-09T18:10:25.221Z,17.73
2024-05-09T18:12:56.591Z,17.71
2024-05-09T18:15:26.084Z,17.65
2024-05-09T18:17:55.259Z,17.56
2024-05-09T18:20:32.787Z,17.53
2024-05-09T18:23:10.376Z,17.44
2024-05-09T18:25:37.431Z,17.33
2024-05-09T18:28:04.839Z,17.30
2024-05-09T18:30:35.085Z,17.30
2024-05-09T18:33:05.939Z,17.25
2024-05-09T18:35:34.155Z,17.16
2024-05-09T18:38:00.986Z,17.18
2024-05-09T18:40:33.420Z,17.14
2024-05-09T18:43:04.676Z,17.08
2024-05-09T18:45:32.561Z,17.07
2024-05-09T18:48:01.841Z,17.06
2024-05-09T18:50:35.131Z,17.01
2024-05-09T18:53:12.792Z,16.94
2024-05-09T18:55:41.645Z,16.92
2024-05-09T18:58:08.672Z,16.85
2024-05-09T19:00:38.759Z,16.85
2024-05-09T19:03:10.539Z,16.80
2024-05-09T19:05:40.376Z,16.77
2024-05-09T19:08:08.263Z,16.71
2024-05-09T19:10:39.591Z,16.72
2024-05-09T19:13:11.550Z,16.74
2024-05-09T19:15:44.345Z,16.63
2024-05-09T19:18:13.270Z,16.48
2024-05-09T19:20:41.237Z,16.52
2024-05-09T19:23:08.275Z,16.51
2024-05-09T19:25:35.998Z,16.33
2024-05-09T19:28:04.160Z,16.31
2024-05-09T19:30:38.632Z,16.21
2024-05-09T19:33:09.949Z,16.24
2024-05-09T19:35:37.667Z,16.01
2024-05-09T19:38:04.842Z,15.89
2024-05-09T19:40:33.718Z,15.96
2024-05-09T19:43:03.089Z,15.92
2024-05-09T19:45:30.653Z,15.88
2024-05-09T19:47:57.916Z,15.79
2024-05-09T19:50:32.683Z,15.76
2024-05-09T19:53:08.723Z,15.78
2024-05-09T19:55:35.641Z,15.77
2024-05-09T19:58:05.087Z,15.77
2024-05-09T20:00:39.698Z,15.70
2024-05-09T20:03:09.494Z,15.63
2024-05-09T20:05:37.484Z,15.58
2024-05-09T20:08:05.289Z,15.52
2024-05-09T20:10:34.472Z,15.54
2024-05-09T20:13:03.134Z,15.52
2024-05-09T20:15:31.137Z,15.47
2024-05-09T20:17:58.158Z,15.59
2024-05-09T20:20:35.571Z,15.59
2024-05-09T20:23:06.429Z,15.50
2024-05-09T20:25:33.351Z,15.39
2024-05-09T20:28:00.584Z,15.48
2024-05-09T20:30:32.180Z,15.28
2024-05-09T20:33:03.577Z,15.34
2024-05-09T20:35:31.455Z,15.39
2024-05-09T20:37:59.449Z,15.32
2024-05-09T20:40:33.339Z,15.34
2024-05-09T20:43:03.971Z,15.23
2024-05-09T20:45:31.000Z,15.26
2024-05-09T20:48:00.256Z,15.24
2024-05-09T20:50:36.184Z,15.04
2024-05-09T20:53:09.432Z,15.19
2024-05-09T20:55:36.394Z,15.20
2024-05-09T20:58:05.672Z,15.11
2024-05-09T21:00:39.188Z,15.10
2024-05-09T21:03:10.182Z,15.14
2024-05-09T21:05:37.271Z,15.09
2024-05-09T21:08:04.664Z,15.04
2024-05-09T21:10:33.093Z,14.88
2024-05-09T21:13:02.897Z,14.87
2024-05-09T21:15:30.670Z,14.78
2024-05-09T21:17:57.622Z,14.84
2024-05-09T21:20:30.468Z,14.85
2024-05-09T21:22:59.146Z,14.80
2024-05-09T21:25:26.079Z,14.73
2024-05-09T21:27:52.961Z,14.71
2024-05-09T21:30:31.455Z,14.69
2024-05-09T21:33:08.450Z,14.56
2024-05-09T21:35:35.832Z,14.66
2024-05-09T21:38:02.638Z,14.67
2024-05-09T21:40:34.396Z,14.65
2024-05-09T21:43:03.600Z,14.63
2024-05-09T21:45:30.668Z,14.52
2024-05-09T21:47:57.640Z,14.58
2024-05-09T21:50:32.203Z,14.49
2024-05-09T21:53:06.537Z,14.47
2024-05-09T21:55:33.682Z,14.44
2024-05-09T21:58:00.681Z,14.43
2024-05-09T22:00:34.786Z,14.32
2024-05-09T22:03:05.290Z,14.39
2024-05-09T22:05:32.742Z,14.32
2024-05-09T22:07:59.940Z,14.32
2024-05-09T22:10:33.108Z,14.18
2024-05-09T22:13:02.431Z,14.15
2024-05-09T22:15:29.534Z,14.23
2024-05-09T22:17:57.807Z,14.22
2024-05-09T22:20:34.246Z,14.12
2024-05-09T22:23:05.114Z,14.11
2024-05-09T22:25:33.067Z,14.08
2024-05-09T22:28:01.231Z,14.03
2024-05-09T22:30:35.745Z,14.02
2024-05-09T22:33:10.402Z,13.92
2024-05-09T22:35:39.545Z,13.89
2024-05-09T22:38:06.818Z,13.88
2024-05-09T22:40:45.539Z,13.92
2024-05-09T22:43:23.922Z,13.81
2024-05-09T22:45:53.203Z,13.81
2024-05-09T22:48:20.435Z,13.70
2024-05-09T22:50:47.618Z,13.75
2024-05-09T22:53:14.543Z,13.78
2024-05-09T22:55:41.771Z,13.77
2024-05-09T22:58:08.588Z,13.68
2024-05-09T23:00:35.614Z,13.65
2024-05-09T23:03:05.532Z,13.63
2024-05-09T23:05:33.110Z,13.65
2024-05-09T23:08:01.980Z,13.61
2024-05-09T23:10:35.194Z,13.47
2024-05-09T23:13:04.538Z,13.54
2024-05-09T23:15:31.660Z,13.52
2024-05-09T23:17:59.087Z,13.45
2024-05-09T23:20:33.479Z,13.43
2024-05-09T23:23:05.760Z,13.46
2024-05-09T23:25:35.718Z,13.39
2024-05-09T23:28:02.893Z,13.41
2024-05-09T23:30:38.014Z,13.28
2024-05-09T23:33:08.383Z,13.18
2024-05-09T23:35:35.614Z,13.21
2024-05-09T23:38:02.506Z,13.02
2024-05-09T23:40:37.888Z,13.34
2024-05-09T23:43:11.616Z,13.19
2024-05-09T23:45:42.744Z,13.22
2024-05-09T23:48:10.068Z,13.29
2024-05-09T23:50:40.227Z,13.28
2024-05-09T23:53:10.901Z,13.30
2024-05-09T23:55:38.480Z,13.30
2024-05-09T23:58:08.555Z,13.22
